Time;durP1;ratioP1;P1;durP2;ratioP2;P2;SDS_P1;SDS_P2;PMS_P1;PMS_P2;Temp;Humidity;BMP_temperature;BMP_pressure;BME280_temperature;BME280_humidity;BME280_pressure;Samples;Min_cycle;Max_cycle;Signal;HPM_P1;HPM_P2
2022/12/08 00:01:21;;;;;;;14.28;8.88;;;;;;;-0.14;95.09;99470.39;1739091;81;26104;-63
2022/12/08 00:03:48;;;;;;;17.52;9.60;;;;;;;-0.13;95.11;99476.52;1740484;81;25569;-63
2022/12/08 00:09:23;;;;;;;15.00;8.63;;;;;;;-0.13;95.07;99477.86;1801119;79;25377;-63
2022/12/08 00:12:03;;;;;;;15.00;8.68;;;;;;;-0.12;95.11;99470.95;1780914;79;25397;-63
2022/12/08 00:14:34;;;;;;;17.27;8.38;;;;;;;-0.11;95.21;99479.19;1801176;79;26049;-63
2022/12/08 00:17:03;;;;;;;18.75;7.97;;;;;;;-0.10;95.17;99479.98;1801256;79;25433;-63
2022/12/08 00:19:31;;;;;;;17.50;7.90;;;;;;;-0.10;95.19;99490.61;1801273;79;27455;-61
2022/12/08 00:21:59;;;;;;;13.53;8.55;;;;;;;-0.12;95.19;99482.09;1801051;79;25598;-61
2022/12/08 00:24:33;;;;;;;14.38;7.87;;;;;;;-0.10;95.14;99481.30;1801170;79;25416;-61
2022/12/08 00:27:02;;;;;;;11.63;7.25;;;;;;;-0.10;95.10;99487.95;1780812;79;25475;-62
2022/12/08 00:29:29;;;;;;;14.38;7.15;;;;;;;-0.10;95.17;99490.61;1792460;79;25353;-62
2022/12/08 00:31:55;;;;;;;12.40;7.72;;;;;;;-0.11;95.10;99493.80;1729640;81;28422;-62
2022/12/08 00:34:22;;;;;;;12.28;7.35;;;;;;;-0.12;95.15;99498.05;1801086;79;25426;-62
2022/12/08 00:36:48;;;;;;;12.55;6.10;;;;;;;-0.10;95.15;99503.39;1801140;79;25522;-62
2022/12/08 00:39:17;;;;;;;14.47;6.72;;;;;;;-0.09;95.12;99512.16;1801064;79;25514;-62
2022/12/08 00:44:29;;;;;;;10.98;5.25;;;;;;;-0.10;94.97;99510.04;1784023;79;27456;-62
2022/12/08 00:46:56;;;;;;;10.88;6.42;;;;;;;-0.09;94.85;99514.81;1801057;79;25516;-62
2022/12/08 00:49:24;;;;;;;11.63;6.00;;;;;;;-0.07;94.83;99519.34;1801166;79;25374;-62
2022/12/08 00:51:51;;;;;;;7.87;5.20;;;;;;;-0.06;94.82;99524.95;1801129;79;25537;-62
2022/12/08 00:54:18;;;;;;;9.08;5.80;;;;;;;-0.07;94.83;99529.47;1801131;79;25353;-62
2022/12/08 00:56:45;;;;;;;11.90;5.08;;;;;;;-0.07;94.83;99526.81;1801185;79;27532;-62
2022/12/08 00:59:13;;;;;;;9.05;5.17;;;;;;;-0.06;94.72;99528.39;1801119;79;25408;-62
2022/12/08 01:01:40;;;;;;;7.25;4.92;;;;;;;-0.04;94.79;99530.27;1801166;79;25372;-62
2022/12/08 01:04:11;;;;;;;8.10;4.83;;;;;;;-0.01;94.81;99536.94;1801070;79;25535;-62
2022/12/08 01:06:39;;;;;;;9.50;5.15;;;;;;;-0.02;94.51;99539.31;1801084;79;25542;-62
2022/12/08 01:09:08;;;;;;;8.30;4.92;;;;;;;0.01;94.49;99541.47;1801172;79;27647;-62
2022/12/08 01:11:36;;;;;;;8.13;5.03;;;;;;;0.02;94.32;99536.94;1801205;79;25527;-62
2022/12/08 01:14:03;;;;;;;7.45;4.25;;;;;;;0.02;94.34;99541.75;1801154;79;25536;-62
2022/12/08 01:16:34;;;;;;;10.98;4.92;;;;;;;0.03;94.25;99545.20;1801063;79;25439;-62
2022/12/08 01:19:02;;;;;;;5.80;4.22;;;;;;;0.02;94.05;99540.42;1801127;79;25596;-62
2022/12/08 01:21:28;;;;;;;11.48;4.70;;;;;;;0.04;93.83;99547.61;1801132;79;27429;-62
2022/12/08 01:23:57;;;;;;;6.67;3.92;;;;;;;0.04;93.58;99548.14;1800993;79;25418;-62
2022/12/08 01:26:23;;;;;;;8.55;3.98;;;;;;;0.04;93.63;99547.61;1801221;79;25553;-62
2022/12/08 01:28:50;;;;;;;7.78;3.60;;;;;;;0.04;93.42;99551.59;1801095;79;25594;-62
2022/12/08 01:31:20;;;;;;;15.88;3.90;;;;;;;0.04;93.23;99550.80;1801126;79;25535;-62
2022/12/08 01:33:48;;;;;;;5.58;3.60;;;;;;;0.02;92.99;99556.38;1801121;79;27447;-62
2022/12/08 01:36:28;;;;;;;5.95;3.62;;;;;;;0.01;92.76;99552.64;1801045;79;25607;-62
2022/12/08 01:38:59;;;;;;;5.58;3.27;;;;;;;0.03;93.01;99549.19;1769842;79;25564;-62
2022/12/08 01:41:30;;;;;;;8.08;4.00;;;;;;;0.02;92.96;99544.92;1801095;79;26106;-62
2022/12/08 01:44:10;;;;;;;5.22;3.20;;;;;;;0.03;92.95;99552.64;1801131;79;25524;-62
2022/12/08 01:46:41;;;;;;;6.40;2.98;;;;;;;0.03;92.47;99545.20;1801107;79;27458;-62
2022/12/08 01:49:22;;;;;;;7.85;3.22;;;;;;;0.01;92.39;99545.45;1801050;79;25476;-63
2022/12/08 01:51:53;;;;;;;8.90;3.30;;;;;;;-0.01;91.95;99548.37;1769855;79;25551;-62
2022/12/08 01:54:24;;;;;;;5.80;3.17;;;;;;;0.01;92.22;99556.63;1801058;79;25578;-62
2022/12/08 01:57:08;;;;;;;7.20;3.67;;;;;;;-0.02;91.97;99556.09;1801206;79;25361;-62
2022/12/08 01:59:40;;;;;;;5.85;2.55;;;;;;;-0.03;91.86;99551.81;1801143;79;27549;-62
2022/12/08 02:02:09;;;;;;;4.95;3.12;;;;;;;-0.02;91.98;99554.76;1801053;79;25527;-62
2022/12/08 02:04:36;;;;;;;8.68;3.22;;;;;;;-0.01;92.08;99551.02;1770287;79;25615;-62
2022/12/08 02:07:05;;;;;;;7.87;3.33;;;;;;;-0.01;91.87;99563.53;1799661;79;25554;-62
2022/12/08 02:09:31;;;;;;;6.70;3.22;;;;;;;-0.02;91.73;99558.75;1792874;79;25434;-62
2022/12/08 02:12:00;;;;;;;6.50;3.10;;;;;;;-0.04;91.37;99554.19;1792672;79;27543;-62
2022/12/08 02:14:27;;;;;;;5.08;3.00;;;;;;;-0.03;91.54;99561.66;1792575;80;25377;-62
2022/12/08 02:17:13;;;;;;;5.35;3.45;;;;;;;-0.03;91.53;99552.36;1792668;79;25379;-62
2022/12/08 02:20:08;;;;;;;6.72;3.22;;;;;;;-0.04;91.46;99563.50;1792675;80;25584;-62
2022/12/08 02:22:57;;;;;;;7.35;3.08;;;;;;;-0.06;91.31;99549.66;1791680;78;25500;-61
2022/12/08 02:25:30;;;;;;;4.90;3.02;;;;;;;-0.08;91.21;99547.80;1792784;80;27610;-62
2022/12/08 02:44:01;;;;;;;6.62;3.33;;;;;;;-0.22;90.91;99559.41;1712916;78;25639;-61
2022/12/08 02:46:35;;;;;;;6.17;3.20;;;;;;;-0.24;90.87;99557.54;1712077;83;25665;-61
2022/12/08 02:49:02;;;;;;;7.22;3.72;;;;;;;-0.24;90.92;99562.03;1690505;83;25653;-61
2022/12/08 02:51:28;;;;;;;4.75;2.70;;;;;;;-0.27;90.75;99567.34;1712964;83;27460;-61
2022/12/08 02:53:55;;;;;;;5.47;3.33;;;;;;;-0.29;90.74;99565.48;1690851;83;25465;-61
2022/12/08 02:56:44;;;;;;;5.50;3.22;;;;;;;-0.30;90.74;99570.50;1712933;83;25577;-61
2022/12/08 02:59:19;;;;;;;6.33;3.50;;;;;;;-0.30;90.67;99572.38;1712286;83;25628;-62
2022/12/08 03:02:07;;;;;;;5.22;3.33;;;;;;;-0.32;90.86;99577.94;1713030;83;25565;-62
2022/12/08 03:05:03;;;;;;;6.05;3.45;;;;;;;-0.31;90.79;99578.73;1712489;83;27563;-62
2022/12/08 03:07:43;;;;;;;6.33;3.42;;;;;;;-0.32;90.93;99583.25;1712888;82;25545;-62
2022/12/08 03:10:24;;;;;;;7.28;3.60;;;;;;;-0.32;90.98;99585.09;1712596;83;25540;-62
2022/12/08 03:12:56;;;;;;;7.15;4.00;;;;;;;-0.32;90.84;99587.75;1712317;83;25566;-61
2022/12/08 03:15:23;;;;;;;8.53;3.85;;;;;;;-0.33;90.86;99581.64;1689638;83;25653;-62
2022/12/08 03:17:54;;;;;;;10.88;4.20;;;;;;;-0.34;90.64;99582.71;1713040;83;27594;-62
2022/12/08 03:20:24;;;;;;;5.58;3.58;;;;;;;-0.33;90.73;99584.83;1712698;83;25446;-62
2022/12/08 03:22:55;;;;;;;10.80;4.20;;;;;;;-0.33;90.81;99588.82;1690703;83;25589;-62
2022/12/08 03:25:25;;;;;;;9.73;4.12;;;;;;;-0.35;90.83;99594.38;1712960;83;25514;-62
2022/12/08 03:27:53;;;;;;;7.53;3.98;;;;;;;-0.37;90.70;99596.50;1712991;82;25559;-62
2022/12/08 03:30:19;;;;;;;8.35;4.03;;;;;;;-0.39;90.59;99604.72;1712900;83;27481;-62
2022/12/08 03:33:12;;;;;;;8.65;4.08;;;;;;;-0.38;90.71;99613.48;1690568;83;25660;-62
2022/12/08 03:35:40;;;;;;;7.35;4.00;;;;;;;-0.37;90.81;99608.45;1712848;83;25556;-61
2022/12/08 03:38:11;;;;;;;9.98;4.08;;;;;;;-0.39;90.79;99610.04;1712962;83;27687;-62
2022/12/08 03:40:38;;;;;;;8.95;4.75;;;;;;;-0.39;90.84;99607.38;1712988;82;25628;-62
2022/12/08 03:43:05;;;;;;;8.95;4.60;;;;;;;-0.38;90.78;99602.86;1712879;82;26982;-62
2022/12/08 03:45:32;;;;;;;7.50;4.53;;;;;;;-0.38;90.65;99609.50;1712872;83;25754;-62
2022/12/08 03:47:58;;;;;;;7.40;4.42;;;;;;;-0.39;90.68;99604.72;1712967;83;25409;-61
2022/12/08 03:50:25;;;;;;;8.43;4.65;;;;;;;-0.38;90.68;99604.98;1690591;83;26055;-61
2022/12/08 03:52:51;;;;;;;8.73;4.60;;;;;;;-0.39;90.54;99602.06;1712985;83;25560;-62
2022/12/08 03:55:18;;;;;;;6.60;4.35;;;;;;;-0.40;90.43;99604.44;1712940;83;28232;-62
2022/12/08 03:57:44;;;;;;;6.33;4.62;;;;;;;-0.41;90.30;99596.21;1712840;82;25629;-62
2022/12/08 04:00:14;;;;;;;12.58;4.95;;;;;;;-0.41;90.29;99604.69;1712895;83;25572;-62
2022/12/08 04:02:41;;;;;;;7.67;4.53;;;;;;;-0.43;90.26;99600.16;1690880;83;25668;-61
2022/12/08 04:05:08;;;;;;;10.13;4.75;;;;;;;-0.45;90.22;99609.70;1713090;83;25644;-63
2022/12/08 04:07:34;;;;;;;6.33;4.72;;;;;;;-0.46;90.27;99613.44;1713090;83;27311;-61
2022/12/08 04:10:01;;;;;;;10.85;5.62;;;;;;;-0.47;90.22;99609.16;1690643;83;25481;-61
2022/12/08 04:12:27;;;;;;;7.72;5.33;;;;;;;-0.50;90.20;99618.96;1713103;83;25648;-63
2022/12/08 04:14:54;;;;;;;11.33;5.72;;;;;;;-0.50;90.24;99621.62;1713024;83;25605;-64
2022/12/08 04:17:20;;;;;;;8.30;5.55;;;;;;;-0.50;90.20;99631.45;1713096;83;25398;-61
2022/12/08 04:19:46;;;;;;;9.23;5.75;;;;;;;-0.50;90.28;99627.47;1713088;83;27558;-61
2022/12/08 04:22:12;;;;;;;10.08;5.78;;;;;;;-0.49;90.29;99627.76;1713051;83;25597;-64
2022/12/08 04:24:38;;;;;;;11.15;6.00;;;;;;;-0.49;90.52;99635.73;1713101;83;25563;-64
2022/12/08 04:27:04;;;;;;;12.80;5.65;;;;;;;-0.48;90.53;99639.44;1713081;83;33718;-64
2022/12/08 04:29:31;;;;;;;10.93;5.55;;;;;;;-0.46;90.61;99645.83;1713137;83;25482;-64
2022/12/08 04:31:57;;;;;;;8.98;6.30;;;;;;;-0.46;90.45;99644.50;1713089;82;27514;-63
2022/12/08 04:34:23;;;;;;;11.03;5.87;;;;;;;-0.45;90.42;99632.83;1712995;83;25804;-61
2022/12/08 04:36:50;;;;;;;11.15;5.72;;;;;;;-0.45;90.45;99634.16;1690717;83;25619;-63
2022/12/08 04:39:16;;;;;;;11.38;6.15;;;;;;;-0.44;90.50;99639.22;1690736;83;25614;-64
2022/12/08 04:41:42;;;;;;;10.23;6.62;;;;;;;-0.43;90.47;99646.66;1713143;83;25439;-64
2022/12/08 04:44:08;;;;;;;10.50;6.40;;;;;;;-0.41;90.50;99655.17;1691573;83;27499;-61
2022/12/08 04:46:34;;;;;;;12.43;6.10;;;;;;;-0.40;90.48;99640.31;1688585;84;29035;-61
2022/12/08 04:49:02;;;;;;;10.55;6.47;;;;;;;-0.40;90.46;99658.91;1688645;85;25547;-63
2022/12/08 04:51:28;;;;;;;13.80;6.83;;;;;;;-0.38;90.48;99648.03;1688633;84;25483;-62
2022/12/08 04:53:54;;;;;;;12.98;7.78;;;;;;;-0.38;90.44;99654.67;1688701;85;30484;-62
2022/12/08 04:56:21;;;;;;;8.93;6.30;;;;;;;-0.36;90.38;99671.16;1688648;85;28309;-62
2022/12/08 04:58:48;;;;;;;13.18;7.47;;;;;;;-0.36;90.38;99651.77;1688569;84;25573;-62
2022/12/08 05:01:15;;;;;;;11.28;6.85;;;;;;;-0.34;90.28;99657.63;1688717;85;25230;-62
2022/12/08 05:03:41;;;;;;;12.37;7.83;;;;;;;-0.34;90.21;99648.33;1688631;85;25526;-62
2022/12/08 05:06:12;;;;;;;13.58;7.35;;;;;;;-0.34;90.17;99654.47;1666679;85;25614;-62
2022/12/08 05:08:38;;;;;;;11.10;7.90;;;;;;;-0.33;90.17;99654.72;1688684;84;28248;-62
2022/12/08 05:11:08;;;;;;;15.88;8.18;;;;;;;-0.31;90.02;99654.47;1688535;83;25461;-62
2022/12/08 05:13:35;;;;;;;15.05;8.28;;;;;;;-0.31;90.13;99660.58;1688789;85;25444;-62
2022/12/08 05:16:14;;;;;;;13.60;7.92;;;;;;;-0.29;89.98;99664.32;1688614;85;25587;-63
2022/12/08 05:18:42;;;;;;;11.48;7.65;;;;;;;-0.28;90.09;99678.69;1688821;85;25436;-62
2022/12/08 05:21:09;;;;;;;11.33;7.90;;;;;;;-0.26;90.14;99679.23;1688609;84;27245;-62
2022/12/08 05:23:36;;;;;;;10.32;7.58;;;;;;;-0.25;90.08;99683.50;1688557;83;25392;-62
2022/12/08 05:26:02;;;;;;;11.40;8.73;;;;;;;-0.26;89.69;99685.09;1688639;84;25465;-63
2022/12/08 05:28:29;;;;;;;12.43;8.30;;;;;;;-0.26;89.84;99685.88;1688588;85;26049;-62
2022/12/08 05:30:55;;;;;;;15.88;8.30;;;;;;;-0.24;89.71;99681.14;1688666;84;25649;-63
2022/12/08 05:33:22;;;;;;;12.37;8.78;;;;;;;-0.23;89.75;99684.59;1666599;85;27322;-63
2022/12/08 05:35:48;;;;;;;15.00;7.78;;;;;;;-0.21;89.64;99683.80;1688526;84;25477;-62
2022/12/08 05:38:14;;;;;;;14.23;8.68;;;;;;;-0.22;89.53;99676.36;1688628;85;25664;-62
2022/12/08 05:40:42;;;;;;;13.08;8.63;;;;;;;-0.21;89.40;99689.12;1688578;85;25514;-62
2022/12/08 05:43:09;;;;;;;14.83;7.97;;;;;;;-0.21;89.40;99691.77;1686508;83;25463;-62
2022/12/08 05:45:36;;;;;;;14.87;8.55;;;;;;;-0.21;89.31;99697.09;1680946;84;27513;-62
2022/12/08 05:48:03;;;;;;;12.53;8.40;;;;;;;-0.22;89.18;99684.88;1680971;85;25555;-62
2022/12/08 05:50:29;;;;;;;14.50;8.68;;;;;;;-0.21;89.22;99678.48;1695219;84;25472;-61
2022/12/08 05:52:56;;;;;;;13.08;8.15;;;;;;;-0.23;89.11;99680.59;1702859;83;25600;-63
2022/12/08 05:55:22;;;;;;;14.58;8.93;;;;;;;-0.24;88.97;99685.12;1702914;84;25470;-62
2022/12/08 05:57:49;;;;;;;15.78;9.13;;;;;;;-0.26;88.88;99681.89;1702878;83;27716;-63
2022/12/08 06:00:17;;;;;;;14.50;8.48;;;;;;;-0.28;88.76;99684.00;1702770;84;25689;-63
2022/12/08 06:02:43;;;;;;;11.85;8.40;;;;;;;-0.29;88.87;99682.92;1702876;84;25584;-63
2022/12/08 06:05:09;;;;;;;12.15;8.18;;;;;;;-0.32;88.83;99694.05;1702789;83;25572;-63
2022/12/08 06:07:39;;;;;;;16.12;8.28;;;;;;;-0.34;88.80;99698.82;1702875;84;25487;-61
2022/12/08 06:10:07;;;;;;;;;;;;;;;-0.36;88.78;99696.95;1705397;83;28175;-62
2022/12/08 06:12:33;;;;;;;16.05;8.63;;;;;;;-0.38;88.81;99705.96;1680616;84;25665;-61
2022/12/08 06:15:00;;;;;;;14.03;8.23;;;;;;;-0.44;88.71;99708.84;1702852;84;25448;-61
2022/12/08 06:17:27;;;;;;;16.05;8.65;;;;;;;-0.46;88.77;99717.57;1702811;83;25628;-61
2022/12/08 06:19:54;;;;;;;13.10;7.85;;;;;;;-0.49;88.82;99729.52;1680810;84;25766;-63
2022/12/08 06:22:20;;;;;;;22.55;9.85;;;;;;;-0.51;88.91;99733.45;1702877;83;27528;-62
2022/12/08 06:24:47;;;;;;;19.20;9.48;;;;;;;-0.52;89.01;99735.86;1702791;84;25917;-63
2022/12/08 06:27:13;;;;;;;17.87;9.30;;;;;;;-0.58;88.98;99731.81;1702816;84;25483;-63
2022/12/08 06:29:39;;;;;;;15.78;8.93;;;;;;;-0.58;89.12;99744.27;1702908;84;25728;-62
2022/12/08 06:32:05;;;;;;;17.62;9.18;;;;;;;-0.61;89.21;99750.91;1680966;84;25606;-63
2022/12/08 06:34:31;;;;;;;17.77;9.43;;;;;;;-0.61;89.39;99754.88;1702887;83;27446;-63
2022/12/08 06:36:58;;;;;;;16.52;9.83;;;;;;;-0.60;89.60;99761.78;1702817;84;25761;-63
2022/12/08 06:39:24;;;;;;;17.42;9.68;;;;;;;-0.61;89.62;99750.11;1680574;84;25430;-63
2022/12/08 06:44:37;;;;;;;16.80;8.98;;;;;;;-0.59;89.83;99748.80;1700957;84;25632;-63
2022/12/08 06:47:03;;;;;;;18.95;9.40;;;;;;;-0.58;89.76;99750.41;1655878;84;27549;-63
2022/12/08 06:49:30;;;;;;;18.62;9.90;;;;;;;-0.59;89.79;99744.02;1678722;84;25480;-63
2022/12/08 06:51:56;;;;;;;15.90;9.18;;;;;;;-0.59;89.80;99742.69;1700771;83;25541;-66
2022/12/08 06:54:22;;;;;;;16.80;9.33;;;;;;;-0.58;89.86;99746.93;1700290;83;25736;-67
2022/12/08 06:56:48;;;;;;;19.25;9.48;;;;;;;-0.58;89.87;99750.91;1700718;83;25473;-68
2022/12/08 06:59:16;;;;;;;22.17;9.60;;;;;;;-0.59;89.94;99743.48;1700675;84;27559;-66
2022/12/08 07:01:42;;;;;;;18.37;9.58;;;;;;;-0.55;90.03;99754.94;1700422;84;27344;-66
2022/12/08 07:04:08;;;;;;;16.50;8.77;;;;;;;-0.55;89.99;99750.95;1700581;83;25626;-68
2022/12/08 07:06:34;;;;;;;16.37;9.38;;;;;;;-0.55;90.06;99753.08;1700553;83;34980;-68
2022/12/08 07:09:00;;;;;;;14.47;8.55;;;;;;;-0.55;90.02;99755.73;1700580;83;25467;-68
2022/12/08 07:11:27;;;;;;;20.35;9.68;;;;;;;-0.53;90.03;99758.94;1700623;83;27493;-67
2022/12/08 07:13:56;;;;;;;17.40;10.15;;;;;;;-0.51;90.11;99766.67;1700520;84;25827;-68
2022/12/08 07:16:23;;;;;;;15.40;9.38;;;;;;;-0.50;90.24;99765.09;1700702;84;25470;-68
2022/12/08 07:18:50;;;;;;;20.92;9.75;;;;;;;-0.46;90.25;99764.07;1700506;84;27747;-68
2022/12/08 07:21:17;;;;;;;21.60;11.57;;;;;;;-0.44;90.29;99774.73;1700599;83;25423;-67
2022/12/08 07:23:47;;;;;;;18.67;9.15;;;;;;;-0.41;90.28;99766.28;1700655;83;27509;-68
2022/12/08 07:26:13;;;;;;;18.42;9.30;;;;;;;-0.40;90.00;99770.52;1700454;84;25464;-67
2022/12/08 07:28:41;;;;;;;15.45;8.88;;;;;;;-0.33;90.13;99765.55;1700582;83;25575;-69
2022/12/08 07:31:14;;;;;;;16.05;8.83;;;;;;;-0.30;90.33;99769.84;1700575;83;25647;-68
2022/12/08 07:33:40;;;;;;;14.03;8.73;;;;;;;-0.24;90.13;99776.83;1699661;83;25452;-67
2022/12/08 07:36:08;;;;;;;15.25;9.08;;;;;;;-0.18;90.04;99782.98;1700651;83;27602;-68
2022/12/08 07:38:34;;;;;;;16.85;8.30;;;;;;;-0.12;89.72;99781.18;1696933;84;25565;-67
2022/12/08 07:41:01;;;;;;;16.15;9.35;;;;;;;-0.08;89.71;99780.44;1700704;83;25530;-66
2022/12/08 07:43:27;;;;;;;15.95;7.95;;;;;;;0.02;90.02;99775.75;1700740;83;27633;-65
2022/12/08 07:45:53;;;;;;;21.90;8.30;;;;;;;0.15;90.04;99780.67;1702764;84;25670;-64
2022/12/08 07:48:19;;;;;;;17.37;9.25;;;;;;;0.26;90.12;99782.88;1702721;84;27587;-65
2022/12/08 07:50:46;;;;;;;17.40;8.70;;;;;;;0.41;90.07;99788.05;1702661;84;25762;-65
2022/12/08 07:53:13;;;;;;;15.32;7.87;;;;;;;0.52;89.65;99777.23;1680620;84;25592;-65
2022/12/08 07:55:42;;;;;;;16.40;8.23;;;;;;;0.61;89.31;99782.08;1702676;84;26244;-65
2022/12/08 07:58:10;;;;;;;12.60;6.28;;;;;;;0.71;89.17;99786.94;1702871;84;25632;-65
2022/12/08 08:00:36;;;;;;;14.38;8.53;;;;;;;0.84;89.61;99790.24;1702690;84;28014;-65
2022/12/08 08:03:03;;;;;;;15.65;8.33;;;;;;;1.01;88.90;99791.41;1702622;83;25555;-65
2022/12/08 08:05:29;;;;;;;19.98;8.05;;;;;;;1.17;88.91;99798.95;1702681;84;25456;-66
2022/12/08 08:07:55;;;;;;;15.83;9.55;;;;;;;1.42;89.96;99799.07;1702690;84;25581;-66
2022/12/08 08:10:21;;;;;;;19.00;9.80;;;;;;;1.75;89.33;99809.05;1702717;84;25400;-64
2022/12/08 08:12:47;;;;;;;16.07;9.50;;;;;;;2.02;88.49;99809.39;1702717;84;27505;-65
2022/12/08 08:15:14;;;;;;;15.68;9.75;;;;;;;2.32;89.64;99808.64;1702651;84;25486;-64
2022/12/08 08:17:40;;;;;;;19.92;9.95;;;;;;;2.73;90.49;99800.63;1702704;84;25586;-64
2022/12/08 08:20:08;;;;;;;21.55;10.30;;;;;;;3.14;89.06;99805.11;1702662;84;25607;-65
2022/12/08 08:22:35;;;;;;;21.93;10.75;;;;;;;3.49;89.20;99814.91;1702754;84;25675;-65
2022/12/08 08:25:04;;;;;;;20.02;10.58;;;;;;;3.85;87.38;99808.05;1702689;84;29699;-64
2022/12/08 08:27:31;;;;;;;21.52;9.83;;;;;;;4.06;85.69;99806.59;1702761;84;25715;-66
2022/12/08 08:29:57;;;;;;;18.50;10.28;;;;;;;4.25;85.65;99806.19;1702732;83;25451;-65
2022/12/08 08:32:23;;;;;;;20.55;10.70;;;;;;;4.61;84.95;99807.80;1702651;84;25574;-66
2022/12/08 08:34:51;;;;;;;18.87;10.63;;;;;;;4.84;84.29;99806.27;1702736;83;25467;-64
2022/12/08 08:37:18;;;;;;;16.80;10.00;;;;;;;4.99;83.77;99809.36;1702734;83;28187;-64
2022/12/08 08:39:44;;;;;;;16.80;10.18;;;;;;;5.20;83.29;99812.06;1702624;84;25557;-65
2022/12/08 08:42:10;;;;;;;16.77;9.90;;;;;;;5.41;81.93;99818.02;1702697;83;25408;-67
2022/12/08 08:44:37;;;;;;;16.02;10.20;;;;;;;5.51;81.48;99820.31;1701661;83;25498;-65
2022/12/08 08:47:04;;;;;;;18.30;9.85;;;;;;;5.87;82.59;99819.31;1700708;84;25634;-65
2022/12/08 08:49:30;;;;;;;17.62;9.80;;;;;;;6.25;81.59;99823.41;1678478;84;27528;-65
2022/12/08 08:51:56;;;;;;;16.73;9.85;;;;;;;6.38;78.86;99829.12;1700570;83;25674;-65
2022/12/08 08:54:23;;;;;;;16.55;9.83;;;;;;;6.34;76.71;99829.70;1700656;83;25539;-64
2022/12/08 08:56:49;;;;;;;15.78;9.78;;;;;;;6.38;77.54;99824.54;1700577;83;25545;-64
2022/12/08 08:59:15;;;;;;;19.75;10.70;;;;;;;6.53;76.45;99827.55;1700694;83;25601;-64
2022/12/08 09:01:43;;;;;;;17.07;9.90;;;;;;;6.60;76.22;99819.90;1700578;83;29609;-64
2022/12/08 09:04:10;;;;;;;17.42;10.28;;;;;;;6.54;73.94;99829.15;1700526;83;25723;-63
2022/12/08 09:06:37;;;;;;;19.85;11.03;;;;;;;6.31;74.36;99825.46;1700646;84;25650;-64
2022/12/08 09:09:04;;;;;;;24.32;13.83;;;;;;;6.54;74.72;99826.46;1700594;84;25576;-63
2022/12/08 09:11:32;;;;;;;20.68;11.53;;;;;;;6.79;76.74;99821.19;1700662;83;25581;-63
2022/12/08 09:13:58;;;;;;;15.05;9.45;;;;;;;7.34;77.73;99827.22;1700621;83;27478;-64
2022/12/08 09:16:24;;;;;;;18.57;9.73;;;;;;;7.65;75.47;99828.75;1700551;83;25806;-63
2022/12/08 09:18:51;;;;;;;16.62;10.40;;;;;;;7.82;75.10;99822.75;1700617;83;25574;-66
2022/12/08 09:21:22;;;;;;;16.45;9.83;;;;;;;8.15;75.48;99830.65;1700586;83;25587;-64
2022/12/08 09:23:52;;;;;;;15.00;9.43;;;;;;;8.59;74.37;99829.12;1700677;83;25662;-64
2022/12/08 09:26:22;;;;;;;14.20;10.00;;;;;;;8.81;71.89;99826.74;1700665;83;29765;-64
2022/12/08 09:28:52;;;;;;;15.38;9.20;;;;;;;9.07;71.08;99816.88;1700617;83;25796;-64
2022/12/08 09:31:20;;;;;;;16.30;9.95;;;;;;;9.31;71.63;99824.62;1700600;82;25604;-64
2022/12/08 09:33:50;;;;;;;13.85;9.03;;;;;;;9.56;70.12;99818.26;1700589;83;25635;-64
2022/12/08 09:36:17;;;;;;;;;;;;;;;9.57;69.51;99809.06;1703219;84;25473;-64
2022/12/08 09:38:43;;;;;;;17.25;9.13;;;;;;;9.86;69.71;99811.74;1700599;84;27610;-67
2022/12/08 09:41:30;;;;;;;14.18;9.30;;;;;;;10.04;68.56;99805.78;1700378;84;25447;-66
2022/12/08 09:44:24;;;;;;;15.88;9.90;;;;;;;9.81;67.08;99806.49;1700552;83;25555;-67
2022/12/08 09:46:54;;;;;;;15.68;9.78;;;;;;;9.59;65.48;99812.23;1702823;84;25577;-66
2022/12/08 09:49:26;;;;;;;16.97;11.03;;;;;;;9.26;66.58;99801.00;1702940;84;25424;-63
2022/12/08 09:51:54;;;;;;;17.15;11.25;;;;;;;9.04;65.54;99809.42;1702619;82;27586;-65
2022/12/08 09:54:36;;;;;;;15.03;10.48;;;;;;;8.59;63.90;99809.47;1702798;84;25487;-64
2022/12/08 09:57:10;;;;;;;16.40;11.10;;;;;;;8.20;65.32;99813.02;1702869;84;25548;-63
2022/12/08 09:59:37;;;;;;;18.42;10.75;;;;;;;8.02;65.68;99803.23;1702326;84;25738;-62
2022/12/08 10:02:13;;;;;;;19.30;11.68;;;;;;;7.65;64.42;99810.47;1680825;84;25573;-64
2022/12/08 10:04:40;;;;;;;18.80;11.85;;;;;;;7.28;65.78;99804.19;1701548;84;28225;-63
2022/12/08 10:07:29;;;;;;;20.88;11.30;;;;;;;7.14;66.74;99805.53;1702906;83;25644;-63
2022/12/08 10:10:13;;;;;;;19.25;11.85;;;;;;;7.04;67.29;99796.31;1703109;83;25427;-64
2022/12/08 10:13:09;;;;;;;17.52;11.08;;;;;;;6.84;66.84;99800.16;1702804;84;25620;-64
2022/12/08 10:16:03;;;;;;;20.85;12.20;;;;;;;6.71;68.08;99792.33;1702779;84;25557;-64
2022/12/08 10:18:33;;;;;;;17.10;11.48;;;;;;;6.83;68.97;99793.98;1680738;84;27753;-62
2022/12/08 10:21:10;;;;;;;16.70;12.37;;;;;;;6.66;67.49;99787.03;1702762;83;25546;-63
2022/12/08 10:23:41;;;;;;;19.90;11.60;;;;;;;6.60;68.38;99790.89;1699928;84;25630;-62
2022/12/08 10:26:18;;;;;;;16.87;11.05;;;;;;;6.26;68.24;99790.06;1680729;84;25640;-62
2022/12/08 10:28:45;;;;;;;18.00;11.53;;;;;;;6.27;68.90;99787.64;1702935;83;25656;-62
2022/12/08 10:31:20;;;;;;;15.88;11.15;;;;;;;6.32;69.00;99782.19;1702844;84;27552;-62
2022/12/08 10:34:00;;;;;;;19.77;11.75;;;;;;;6.16;68.60;99784.33;1702556;84;26118;-61
2022/12/08 10:36:52;;;;;;;21.80;12.35;;;;;;;5.79;67.98;99786.44;1701172;84;25787;-61
2022/12/08 10:39:38;;;;;;;18.50;11.68;;;;;;;5.36;68.12;99771.66;1702847;83;27668;-64
2022/12/08 10:42:20;;;;;;;19.55;11.33;;;;;;;5.02;68.74;99772.05;1702894;84;25479;-62
2022/12/08 10:44:58;;;;;;;21.15;12.28;;;;;;;4.72;69.27;99767.00;1707697;83;27502;-64
2022/12/08 10:47:28;;;;;;;22.42;12.73;;;;;;;4.48;70.28;99773.10;1726053;83;25463;-62
2022/12/08 10:50:20;;;;;;;17.77;11.85;;;;;;;4.38;70.92;99770.51;1726538;82;25617;-62
2022/12/08 10:53:00;;;;;;;20.10;13.35;;;;;;;4.22;71.35;99765.27;1730278;82;25526;-63
2022/12/08 10:55:29;;;;;;;21.10;11.97;;;;;;;4.02;71.87;99772.90;1731197;82;25509;-63
2022/12/08 10:57:55;;;;;;;22.40;12.70;;;;;;;3.94;72.59;99764.12;1700031;82;27487;-62
2022/12/08 11:00:26;;;;;;;20.85;12.80;;;;;;;3.86;72.89;99769.50;1731022;82;25683;-62
2022/12/08 11:03:03;;;;;;;19.65;12.43;;;;;;;3.79;73.51;99749.50;1731033;82;25572;-63
2022/12/08 11:05:35;;;;;;;26.77;13.50;;;;;;;3.87;74.38;99755.06;1731064;82;25621;-62
2022/12/08 11:08:04;;;;;;;22.98;13.93;;;;;;;3.86;74.30;99749.44;1731184;82;25459;-64
2022/12/08 11:10:44;;;;;;;26.52;14.90;;;;;;;3.96;74.96;99743.77;1731212;82;29671;-62
2022/12/08 11:13:26;;;;;;;30.25;15.00;;;;;;;4.02;75.07;99747.99;1731120;82;25635;-63
2022/12/08 11:15:55;;;;;;;21.95;12.88;;;;;;;4.06;75.12;99753.86;1731439;82;25311;-63
2022/12/08 11:18:42;;;;;;;23.83;14.50;;;;;;;4.16;75.08;99745.52;1730966;82;25781;-63
2022/12/08 11:21:19;;;;;;;26.25;14.23;;;;;;;4.16;74.66;99748.19;1700070;82;25625;-64
2022/12/08 11:23:50;;;;;;;22.07;13.35;;;;;;;4.12;75.00;99730.55;1731292;82;28112;-62
2022/12/08 11:26:31;;;;;;;23.22;14.03;;;;;;;4.19;74.71;99741.73;1731226;82;25404;-63
2022/12/08 11:28:58;;;;;;;27.90;15.20;;;;;;;4.08;74.11;99746.89;1731246;82;25439;-62
2022/12/08 11:31:33;;;;;;;23.15;14.87;;;;;;;3.84;73.94;99750.25;1731184;82;25645;-62
2022/12/08 11:34:01;;;;;;;23.95;14.70;;;;;;;3.65;74.15;99748.77;1731197;82;25470;-63
2022/12/08 11:36:32;;;;;;;28.85;15.10;;;;;;;3.49;74.26;99744.55;1731286;82;28138;-63
2022/12/08 11:39:03;;;;;;;23.73;14.15;;;;;;;3.32;74.54;99746.23;1731165;82;25757;-63
2022/12/08 11:41:34;;;;;;;24.07;14.95;;;;;;;3.13;74.86;99741.52;1731214;82;25490;-64
2022/12/08 11:44:38;;;;;;;27.30;16.37;;;;;;;3.04;75.63;99750.36;1731215;82;25533;-62
2022/12/08 11:47:16;;;;;;;32.98;17.60;;;;;;;2.96;76.19;99746.36;1731282;82;25633;-63
2022/12/08 11:49:44;;;;;;;30.37;18.05;;;;;;;2.87;76.51;99735.98;1731231;82;27581;-64
2022/12/08 11:52:25;;;;;;;36.10;19.25;;;;;;;2.79;77.09;99731.97;1731240;82;25621;-63
2022/12/08 11:55:03;;;;;;;34.58;20.10;;;;;;;2.76;77.42;99729.87;1729976;82;25625;-63
2022/12/08 11:57:29;;;;;;;33.75;20.52;;;;;;;2.67;77.70;99726.92;1730698;82;26138;-63
2022/12/08 11:59:58;;;;;;;36.38;19.75;;;;;;;2.60;77.85;99721.86;1731210;82;25438;-63
2022/12/08 12:02:28;;;;;;;36.77;21.73;;;;;;;2.50;78.11;99721.88;1731300;81;28320;-64
2022/12/08 12:05:28;;;;;;;39.05;21.02;;;;;;;2.42;78.32;99715.77;1731148;82;26070;-64
2022/12/08 12:08:26;;;;;;;36.48;22.05;;;;;;;2.39;78.61;99718.97;1730654;80;25619;-63